createdAt,value
2018-01-21T00:01:43.754Z,72.50
2018-01-21T00:04:12.553Z,81.60
2018-01-21T00:06:41.275Z,76.87
2018-01-21T00:09:09.347Z,72.73
2018-01-21T00:11:37.409Z,74.03
2018-01-21T00:14:05.382Z,75.33
2018-01-21T00:16:33.365Z,96.20
2018-01-21T00:19:01.411Z,100.40
2018-01-21T00:21:29.339Z,110.50
2018-01-21T00:23:57.261Z,73.90
2018-01-21T00:26:25.349Z,93.70
2018-01-21T00:28:53.290Z,87.73
2018-01-21T00:31:21.211Z,129.30
2018-01-21T00:33:49.289Z,120.07
2018-01-21T00:36:17.319Z,221.57
2018-01-21T00:38:45.275Z,355.47
2018-01-21T00:41:13.315Z,360.27
2018-01-21T00:43:41.261Z,332.23
2018-01-21T00:46:09.162Z,336.47
2018-01-21T00:48:37.255Z,344.30
2018-01-21T00:51:05.948Z,315.10
2018-01-21T00:53:33.847Z,323.23
2018-01-21T00:56:02.639Z,331.97
2018-01-21T00:58:30.868Z,340.40
2018-01-21T01:01:00.128Z,340.30
2018-01-21T01:03:29.261Z,313.27
2018-01-21T01:05:58.029Z,349.80
2018-01-21T01:08:25.965Z,355.27
2018-01-21T01:10:54.863Z,344.90
2018-01-21T01:13:22.841Z,388.60
2018-01-21T01:15:52.736Z,412.30
2018-01-21T01:18:21.589Z,446.87
2018-01-21T01:20:50.457Z,453.30
2018-01-21T01:23:18.729Z,453.93
2018-01-21T01:25:47.338Z,444.40
2018-01-21T01:28:16.567Z,453.97
2018-01-21T01:30:44.655Z,495.67
2018-01-21T01:33:12.851Z,499.13
2018-01-21T01:35:41.411Z,486.63
2018-01-21T01:38:09.353Z,505.90
2018-01-21T01:40:39.141Z,496.57
2018-01-21T01:43:07.462Z,483.70
2018-01-21T01:45:35.787Z,524.43
2018-01-21T01:48:04.453Z,477.27
2018-01-21T01:50:32.413Z,520.53
2018-01-21T01:53:00.920Z,497.03
2018-01-21T01:55:29.586Z,555.07
2018-01-21T01:57:58.239Z,501.93
2018-01-21T02:00:27.285Z,493.00
2018-01-21T02:02:55.753Z,520.53
2018-01-21T02:05:23.853Z,463.43
2018-01-21T02:07:52.406Z,475.30
2018-01-21T02:10:20.651Z,508.17
2018-01-21T02:12:49.798Z,504.30
2018-01-21T02:15:18.132Z,475.43
2018-01-21T02:17:47.429Z,471.83
2018-01-21T02:20:19.066Z,457.77
2018-01-21T02:22:47.546Z,506.23
2018-01-21T02:25:15.884Z,472.87
2018-01-21T02:27:44.205Z,438.37
2018-01-21T02:30:12.541Z,476.90
2018-01-21T02:32:40.759Z,470.43
2018-01-21T02:35:10.052Z,393.73
2018-01-21T02:37:40.653Z,394.93
2018-01-21T02:40:09.291Z,388.43
2018-01-21T02:42:38.106Z,361.80
2018-01-21T02:45:07.713Z,362.47
2018-01-21T02:47:36.055Z,368.47
2018-01-21T02:50:04.617Z,303.43
2018-01-21T02:52:34.065Z,296.17
2018-01-21T02:55:04.255Z,297.10
2018-01-21T02:57:32.871Z,307.03
2018-01-21T03:00:03.089Z,277.90
2018-01-21T03:02:31.961Z,282.10
2018-01-21T03:04:59.921Z,280.47
2018-01-21T03:07:28.523Z,286.97
2018-01-21T03:09:57.189Z,280.00
2018-01-21T03:12:25.673Z,251.77
2018-01-21T03:14:53.877Z,283.80
2018-01-21T03:17:22.585Z,274.10
2018-01-21T03:19:51.259Z,276.17
2018-01-21T03:22:19.481Z,240.37
2018-01-21T03:24:48.171Z,243.07
2018-01-21T03:27:16.784Z,261.73
2018-01-21T03:29:46.099Z,236.10
2018-01-21T03:32:14.217Z,244.27
2018-01-21T03:34:43.395Z,214.37
2018-01-21T03:37:12.410Z,190.80
2018-01-21T03:39:40.491Z,191.87
2018-01-21T03:42:08.849Z,206.67
2018-01-21T03:44:37.329Z,153.40
2018-01-21T03:47:05.683Z,155.13
2018-01-21T03:49:34.141Z,166.17
2018-01-21T03:52:02.864Z,127.07
2018-01-21T03:54:31.677Z,111.73
2018-01-21T03:57:00.085Z,120.07
2018-01-21T03:59:31.679Z,118.23
2018-01-21T04:02:02.158Z,97.30
2018-01-21T04:04:30.291Z,102.77
2018-01-21T04:06:59.138Z,105.50
2018-01-21T04:09:27.663Z,117.30
2018-01-21T04:11:56.643Z,69.17
2018-01-21T04:14:25.846Z,98.20
2018-01-21T04:16:54.372Z,100.77
2018-01-21T04:19:22.887Z,90.13
2018-01-21T04:21:51.194Z,89.50
2018-01-21T04:24:19.262Z,99.10
2018-01-21T04:26:47.461Z,96.10
2018-01-21T04:29:15.900Z,93.73
2018-01-21T04:31:43.820Z,126.87
2018-01-21T04:34:11.878Z,90.47
2018-01-21T04:36:40.782Z,86.57
2018-01-21T04:39:09.388Z,103.93
2018-01-21T04:41:37.445Z,84.40
2018-01-21T04:44:05.376Z,88.30
2018-01-21T04:46:35.451Z,80.47
2018-01-21T04:49:04.031Z,80.50
2018-01-21T04:51:32.137Z,86.37
2018-01-21T04:54:00.261Z,84.70
2018-01-21T04:56:29.229Z,82.13
2018-01-21T04:58:57.817Z,79.90
2018-01-21T05:01:26.490Z,99.37
2018-01-21T05:03:54.555Z,65.87
2018-01-21T05:06:23.197Z,87.57
2018-01-21T05:08:51.445Z,90.53
2018-01-21T05:11:20.568Z,72.83
2018-01-21T05:13:48.488Z,95.93
2018-01-21T05:16:16.585Z,75.80
2018-01-21T05:18:45.551Z,57.10
2018-01-21T05:21:13.501Z,66.13
2018-01-21T05:23:41.423Z,71.40
2018-01-21T05:26:10.220Z,55.27
2018-01-21T05:28:38.895Z,70.70
2018-01-21T05:31:07.545Z,67.13
2018-01-21T05:33:35.584Z,57.57
2018-01-21T05:36:03.567Z,53.03
2018-01-21T05:38:31.511Z,46.77
2018-01-21T05:41:00.415Z,60.70
2018-01-21T05:43:28.345Z,62.83
2018-01-21T05:45:56.322Z,64.00
2018-01-21T05:48:25.243Z,54.00
2018-01-21T05:50:53.302Z,76.30
2018-01-21T05:53:21.955Z,59.33
2018-01-21T05:55:49.999Z,43.30
2018-01-21T05:58:17.917Z,68.63
2018-01-21T06:00:46.663Z,80.33
2018-01-21T06:03:14.723Z,66.73
2018-01-21T06:05:42.723Z,60.13
2018-01-21T06:08:10.664Z,52.50
2018-01-21T06:10:38.734Z,63.20
2018-01-21T06:13:06.707Z,72.70
2018-01-21T06:15:34.676Z,44.33
2018-01-21T06:18:02.749Z,53.83
2018-01-21T06:20:30.947Z,57.27
2018-01-21T06:22:59.095Z,81.13
2018-01-21T06:25:27.230Z,66.40
2018-01-21T06:27:55.955Z,72.97
2018-01-21T06:30:23.872Z,94.03
2018-01-21T06:32:51.941Z,92.50
2018-01-21T06:35:20.024Z,72.50
2018-01-21T06:37:48.797Z,94.67
2018-01-21T06:40:16.819Z,121.83
2018-01-21T06:42:44.726Z,156.33
2018-01-21T06:45:12.671Z,124.13
2018-01-21T06:47:40.738Z,132.70
2018-01-21T06:50:08.701Z,128.07
2018-01-21T06:52:36.637Z,120.50
2018-01-21T06:55:04.702Z,126.17
2018-01-21T06:57:32.743Z,121.20
2018-01-21T07:00:00.671Z,154.83
2018-01-21T07:02:28.753Z,132.30
2018-01-21T07:04:56.701Z,133.93
2018-01-21T07:07:25.385Z,132.67
2018-01-21T07:09:53.465Z,135.97
2018-01-21T07:12:22.116Z,121.17
2018-01-21T07:14:50.070Z,127.53
2018-01-21T07:17:18.178Z,110.97
2018-01-21T07:19:46.121Z,95.03
2018-01-21T07:22:14.195Z,127.80
2018-01-21T07:24:42.251Z,156.47
2018-01-21T07:27:10.693Z,131.43
2018-01-21T07:29:39.463Z,146.43
2018-01-21T07:32:07.519Z,96.70
2018-01-21T07:34:36.220Z,136.67
2018-01-21T07:37:04.271Z,183.10
2018-01-21T07:39:32.308Z,183.87
2018-01-21T07:42:00.265Z,164.60
2018-01-21T07:44:28.907Z,168.60
2018-01-21T07:46:57.117Z,160.57
2018-01-21T07:49:25.794Z,176.00
2018-01-21T07:51:53.710Z,188.83
2018-01-21T07:54:21.775Z,138.90
2018-01-21T07:56:49.797Z,179.57
2018-01-21T07:59:17.724Z,180.80
2018-01-21T08:01:45.777Z,165.43
2018-01-21T08:04:13.714Z,167.30
2018-01-21T08:06:41.762Z,188.50
2018-01-21T08:09:09.829Z,151.17
2018-01-21T08:11:37.753Z,174.90
2018-01-21T08:14:06.406Z,169.13
2018-01-21T08:16:34.609Z,184.77
2018-01-21T08:19:03.267Z,172.57
2018-01-21T08:21:31.205Z,155.63
2018-01-21T08:23:59.403Z,202.17
2018-01-21T08:26:27.346Z,165.70
2018-01-21T08:28:55.397Z,170.37
2018-01-21T08:31:24.183Z,194.10
2018-01-21T08:33:58.633Z,171.33
2018-01-21T08:36:32.289Z,207.63
2018-01-21T08:39:06.760Z,208.00
2018-01-21T08:41:38.621Z,208.70
2018-01-21T08:44:06.543Z,206.10
2018-01-21T08:46:35.297Z,206.40
2018-01-21T08:49:03.638Z,207.00
2018-01-21T08:51:31.629Z,207.07
2018-01-21T08:53:59.559Z,194.93
2018-01-21T08:56:28.447Z,206.80
2018-01-21T08:58:57.095Z,201.00
2018-01-21T09:01:25.029Z,215.13
2018-01-21T09:03:53.115Z,170.37
2018-01-21T09:06:21.117Z,182.43
2018-01-21T09:08:49.181Z,188.90
2018-01-21T09:11:17.245Z,212.27
2018-01-21T09:13:45.155Z,192.33
2018-01-21T09:16:13.095Z,206.07
2018-01-21T09:18:41.160Z,201.60
2018-01-21T09:21:09.095Z,190.33
2018-01-21T09:23:37.007Z,182.80
2018-01-21T09:26:05.302Z,245.30
2018-01-21T09:28:33.238Z,216.03
2018-01-21T09:31:01.191Z,198.57
2018-01-21T09:33:29.247Z,189.20
2018-01-21T09:35:57.911Z,195.83
2018-01-21T09:38:25.874Z,210.23
2018-01-21T09:40:53.962Z,243.00
2018-01-21T09:43:22.637Z,197.43
2018-01-21T09:45:50.675Z,188.70
2018-01-21T09:48:18.771Z,225.20
2018-01-21T09:50:46.726Z,228.20
2018-01-21T09:53:14.663Z,222.20
2018-01-21T09:55:42.726Z,193.83
2018-01-21T09:58:11.410Z,174.30
2018-01-21T10:00:40.077Z,201.37
2018-01-21T10:03:08.143Z,191.13
2018-01-21T10:05:36.205Z,241.57
2018-01-21T10:08:04.149Z,160.03
2018-01-21T10:10:32.229Z,187.70
2018-01-21T10:13:00.173Z,177.80
2018-01-21T10:15:28.093Z,166.53
2018-01-21T10:17:56.239Z,181.10
2018-01-21T10:20:24.147Z,205.60
2018-01-21T10:22:52.068Z,160.60
2018-01-21T10:25:20.127Z,197.93
2018-01-21T10:27:48.213Z,195.47
2018-01-21T10:30:16.165Z,195.03
2018-01-21T10:32:44.216Z,200.67
2018-01-21T10:35:12.881Z,198.57
2018-01-21T10:37:40.810Z,199.57
2018-01-21T10:40:08.838Z,188.60
2018-01-21T10:42:37.507Z,212.80
2018-01-21T10:45:05.443Z,189.90
2018-01-21T10:47:33.530Z,198.67
2018-01-21T10:50:01.462Z,189.27
2018-01-21T10:52:29.436Z,197.53
2018-01-21T10:54:57.510Z,154.13
2018-01-21T10:57:25.503Z,181.37
2018-01-21T10:59:53.419Z,178.43
2018-01-21T11:02:22.208Z,143.33
2018-01-21T11:04:50.875Z,181.13
2018-01-21T11:07:18.920Z,161.47
2018-01-21T11:09:46.979Z,136.10
2018-01-21T11:12:14.913Z,119.43
2018-01-21T11:14:43.608Z,149.67
2018-01-21T11:17:12.483Z,144.63
2018-01-21T11:19:40.423Z,155.93
2018-01-21T11:22:08.592Z,138.60
2018-01-21T11:24:36.738Z,167.03
2018-01-21T11:27:04.970Z,143.80
2018-01-21T11:29:33.202Z,136.03
2018-01-21T11:32:02.183Z,143.60
2018-01-21T11:34:30.380Z,139.07
2018-01-21T11:36:58.525Z,140.47
2018-01-21T11:39:27.433Z,149.90
2018-01-21T11:41:55.372Z,108.80
2018-01-21T11:44:24.191Z,147.00
2018-01-21T11:46:52.342Z,147.47
2018-01-21T11:49:21.062Z,147.50
2018-01-21T11:51:49.021Z,123.57
2018-01-21T11:54:17.095Z,137.13
2018-01-21T11:56:45.125Z,142.20
2018-01-21T11:59:13.832Z,130.63
2018-01-21T12:01:42.659Z,138.03
2018-01-21T12:04:10.722Z,136.80
2018-01-21T12:06:38.706Z,156.10
2018-01-21T12:09:06.768Z,139.73
2018-01-21T12:11:34.676Z,154.93
2018-01-21T12:14:02.642Z,133.70
2018-01-21T12:16:30.849Z,137.93
2018-01-21T12:18:59.528Z,131.90
2018-01-21T12:21:28.222Z,139.57
2018-01-21T12:23:57.030Z,143.03
2018-01-21T12:26:25.747Z,133.10
2018-01-21T12:28:53.685Z,104.47
2018-01-21T12:31:22.607Z,110.40
2018-01-21T12:33:50.517Z,130.03
2018-01-21T12:36:18.573Z,103.93
2018-01-21T12:38:46.677Z,118.57
2018-01-21T12:41:15.341Z,97.83
2018-01-21T12:43:43.319Z,118.20
2018-01-21T12:46:11.491Z,112.57
2018-01-21T12:48:39.491Z,97.07
2018-01-21T12:51:08.224Z,87.70
2018-01-21T12:53:36.315Z,99.10
2018-01-21T12:56:04.285Z,96.73
2018-01-21T12:58:32.219Z,107.97
2018-01-21T13:01:00.278Z,103.07
2018-01-21T13:03:28.369Z,98.50
2018-01-21T13:05:56.321Z,91.00
2018-01-21T13:08:24.433Z,91.97
2018-01-21T13:10:52.392Z,102.50
2018-01-21T13:13:20.350Z,85.23
2018-01-21T13:15:48.496Z,86.70
2018-01-21T13:18:16.498Z,91.63
2018-01-21T13:20:44.499Z,88.00
2018-01-21T13:23:12.600Z,80.07
2018-01-21T13:25:40.653Z,68.93
2018-01-21T13:28:08.759Z,67.47
2018-01-21T13:30:37.605Z,94.13
2018-01-21T13:33:05.734Z,83.30
2018-01-21T13:35:33.813Z,84.37
2018-01-21T13:38:03.587Z,64.27
2018-01-21T13:40:31.535Z,68.27
2018-01-21T13:43:02.778Z,104.53
2018-01-21T13:45:31.359Z,84.83
2018-01-21T13:48:00.109Z,67.30
2018-01-21T13:50:28.165Z,81.33
2018-01-21T13:52:56.943Z,86.23
2018-01-21T13:55:24.931Z,84.20
2018-01-21T13:57:53.660Z,104.13
2018-01-21T14:00:21.710Z,83.50
2018-01-21T14:02:49.641Z,110.60
2018-01-21T14:05:17.681Z,94.17
2018-01-21T14:07:45.789Z,104.43
2018-01-21T14:10:13.726Z,89.87
2018-01-21T14:12:41.723Z,69.57
2018-01-21T14:15:09.791Z,89.80
2018-01-21T14:17:37.700Z,95.57
2018-01-21T14:20:05.725Z,77.03
2018-01-21T14:22:34.070Z,100.77
2018-01-21T14:25:02.071Z,100.47
2018-01-21T14:27:30.085Z,96.13
2018-01-21T14:29:58.898Z,98.40
2018-01-21T14:32:26.853Z,78.77
2018-01-21T14:34:55.105Z,100.70
2018-01-21T14:37:23.148Z,93.77
2018-01-21T14:39:51.089Z,96.83
2018-01-21T14:42:19.049Z,98.30
2018-01-21T14:44:47.146Z,109.30
2018-01-21T14:47:15.191Z,109.07
2018-01-21T14:49:43.123Z,126.23
2018-01-21T14:52:11.157Z,111.63
2018-01-21T14:54:39.275Z,126.53
2018-01-21T14:57:07.393Z,126.30
2018-01-21T14:59:35.507Z,124.57
2018-01-21T15:02:03.467Z,110.67
2018-01-21T15:04:31.436Z,124.43
2018-01-21T15:06:59.599Z,132.80
2018-01-21T15:09:27.577Z,126.63
2018-01-21T15:11:55.527Z,96.37
2018-01-21T15:14:23.627Z,125.57
2018-01-21T15:16:51.587Z,145.67
2018-01-21T15:19:19.530Z,127.67
2018-01-21T15:21:47.623Z,145.13
2018-01-21T15:24:15.623Z,139.17
2018-01-21T15:26:43.737Z,131.07
2018-01-21T15:29:12.536Z,153.67
2018-01-21T15:31:40.483Z,131.90
2018-01-21T15:34:09.161Z,141.70
2018-01-21T15:36:38.177Z,121.67
2018-01-21T15:39:06.191Z,115.33
2018-01-21T15:41:34.155Z,128.07
2018-01-21T15:44:02.281Z,117.93
2018-01-21T15:46:31.061Z,132.13
2018-01-21T15:48:59.008Z,120.03
2018-01-21T15:51:28.980Z,87.63
2018-01-21T15:53:56.928Z,94.53
2018-01-21T15:56:25.734Z,102.37
2018-01-21T15:58:53.807Z,94.43
2018-01-21T16:01:21.813Z,102.43
2018-01-21T16:03:49.815Z,95.57
2018-01-21T16:06:18.073Z,81.67
2018-01-21T16:08:46.040Z,78.93
2018-01-21T16:11:14.088Z,92.33
2018-01-21T16:13:42.241Z,91.60
2018-01-21T16:16:10.332Z,76.03
2018-01-21T16:18:38.454Z,91.80
2018-01-21T16:21:06.548Z,90.07
2018-01-21T16:23:35.249Z,87.37
2018-01-21T16:26:03.277Z,76.50
2018-01-21T16:28:31.427Z,79.13
2018-01-21T16:30:59.456Z,71.23
2018-01-21T16:33:28.308Z,111.97
2018-01-21T16:35:56.381Z,84.13
2018-01-21T16:38:36.019Z,81.67
2018-01-21T16:41:04.899Z,80.67
2018-01-21T16:43:33.941Z,72.23
2018-01-21T16:46:02.753Z,71.07
2018-01-21T16:48:30.842Z,102.73
2018-01-21T16:50:58.864Z,76.97
2018-01-21T16:53:26.794Z,85.60
2018-01-21T16:55:55.388Z,70.87
2018-01-21T16:58:23.695Z,83.13
2018-01-21T17:00:51.782Z,75.63
2018-01-21T17:03:20.729Z,81.90
2018-01-21T17:05:48.697Z,74.70
2018-01-21T17:08:16.677Z,78.47
2018-01-21T17:10:44.829Z,82.53
2018-01-21T17:13:12.824Z,92.67
2018-01-21T17:15:40.863Z,80.13
2018-01-21T17:18:09.007Z,75.17
2018-01-21T17:20:37.725Z,62.40
2018-01-21T17:23:05.674Z,75.40
2018-01-21T17:25:34.580Z,95.40
2018-01-21T17:28:02.758Z,77.90
2018-01-21T17:30:30.834Z,83.73
2018-01-21T17:32:58.938Z,92.90
2018-01-21T17:35:26.995Z,95.00
2018-01-21T17:37:54.994Z,97.07
2018-01-21T17:40:23.255Z,85.60
2018-01-21T17:42:51.301Z,95.27
2018-01-21T17:45:19.315Z,77.43
2018-01-21T17:47:47.573Z,88.43
2018-01-21T17:50:15.552Z,79.60
2018-01-21T17:52:43.654Z,115.73
2018-01-21T17:55:11.771Z,107.70
2018-01-21T17:57:39.869Z,99.47
2018-01-21T18:00:08.152Z,91.33
2018-01-21T18:02:36.349Z,129.00
2018-01-21T18:05:04.461Z,103.40
2018-01-21T18:07:32.512Z,115.47
2018-01-21T18:10:01.448Z,126.10
2018-01-21T18:12:29.439Z,122.67
2018-01-21T18:14:57.537Z,113.17
2018-01-21T18:17:25.779Z,113.00
2018-01-21T18:19:53.723Z,129.60
2018-01-21T18:22:21.662Z,113.77
2018-01-21T18:24:49.737Z,124.57
2018-01-21T18:27:18.522Z,109.00
2018-01-21T18:29:46.430Z,129.80
2018-01-21T18:32:14.565Z,140.50
2018-01-21T18:34:42.537Z,115.40
2018-01-21T18:37:10.597Z,112.60
2018-01-21T18:39:38.733Z,111.33
2018-01-21T18:42:06.933Z,142.17
2018-01-21T18:44:34.884Z,123.37
2018-01-21T18:47:03.008Z,130.27
2018-01-21T18:49:30.993Z,107.90
2018-01-21T18:51:59.635Z,120.40
2018-01-21T18:54:27.671Z,104.07
2018-01-21T18:56:55.650Z,125.43
2018-01-21T18:59:23.623Z,96.73
2018-01-21T19:01:51.725Z,127.43
2018-01-21T19:04:19.723Z,140.17
2018-01-21T19:06:48.470Z,120.57
2018-01-21T19:09:16.568Z,124.03
2018-01-21T19:11:44.535Z,123.67
2018-01-21T19:14:12.503Z,116.90
2018-01-21T19:16:40.765Z,127.80
2018-01-21T19:19:08.680Z,134.60
2018-01-21T19:21:37.455Z,122.63
2018-01-21T19:24:05.516Z,133.20
2018-01-21T19:26:33.613Z,130.60
2018-01-21T19:29:01.717Z,129.80
2018-01-21T19:31:29.835Z,108.10
2018-01-21T19:33:57.739Z,138.97
2018-01-21T19:36:26.443Z,123.80
2018-01-21T19:39:00.344Z,149.47
2018-01-21T19:41:48.804Z,95.93
2018-01-21T19:44:17.159Z,125.63
2018-01-21T19:46:45.960Z,121.87
2018-01-21T19:49:13.985Z,105.00
2018-01-21T19:51:42.110Z,128.67
2018-01-21T19:54:10.028Z,120.97
2018-01-21T19:56:38.078Z,107.43
2018-01-21T19:59:06.143Z,86.37
2018-01-21T20:01:34.115Z,108.90
2018-01-21T20:04:02.105Z,114.20
2018-01-21T20:06:30.341Z,134.43
2018-01-21T20:08:58.293Z,135.07
2018-01-21T20:11:26.993Z,104.67
2018-01-21T20:13:55.129Z,93.73
2018-01-21T20:16:23.080Z,123.80
2018-01-21T20:18:51.034Z,117.63
2018-01-21T20:21:19.193Z,111.97
2018-01-21T20:23:47.167Z,111.93
2018-01-21T20:26:15.202Z,123.57
2018-01-21T20:28:43.310Z,111.67
2018-01-21T20:31:11.258Z,130.33
2018-01-21T20:33:39.923Z,106.00
2018-01-21T20:36:07.995Z,116.27
2018-01-21T20:38:36.005Z,95.63
2018-01-21T20:41:03.951Z,113.67
2018-01-21T20:43:32.045Z,109.67
2018-01-21T20:46:00.847Z,128.87
2018-01-21T20:48:28.832Z,105.77
2018-01-21T20:51:02.622Z,115.70
2018-01-21T20:53:36.200Z,115.40
2018-01-21T20:56:04.990Z,117.60
2018-01-21T20:58:33.651Z,98.03
2018-01-21T21:01:01.582Z,121.03
2018-01-21T21:03:29.503Z,169.87
2018-01-21T21:05:57.417Z,110.17
2018-01-21T21:08:25.413Z,101.93
2018-01-21T21:10:53.493Z,109.97
2018-01-21T21:13:21.446Z,118.37
2018-01-21T21:15:49.405Z,123.17
2018-01-21T21:18:17.485Z,140.03
2018-01-21T21:20:45.409Z,112.90
2018-01-21T21:23:14.079Z,134.53
2018-01-21T21:25:42.135Z,139.20
2018-01-21T21:28:10.051Z,123.43
2018-01-21T21:30:38.830Z,143.00
2018-01-21T21:33:07.611Z,118.87
2018-01-21T21:35:36.357Z,146.43
2018-01-21T21:38:04.432Z,126.33
2018-01-21T21:40:32.477Z,138.30
2018-01-21T21:43:00.430Z,133.83
2018-01-21T21:45:29.087Z,132.13
2018-01-21T21:47:57.303Z,125.57
2018-01-21T21:50:25.219Z,117.97
2018-01-21T21:52:53.142Z,143.17
2018-01-21T21:55:21.218Z,122.57
2018-01-21T21:57:49.141Z,131.07
2018-01-21T22:00:17.107Z,124.53
2018-01-21T22:02:45.183Z,116.47
2018-01-21T22:05:13.130Z,103.57
2018-01-21T22:07:41.061Z,108.43
2018-01-21T22:10:09.129Z,131.20
2018-01-21T22:12:37.787Z,126.03
2018-01-21T22:15:05.720Z,142.63
2018-01-21T22:17:33.769Z,139.07
2018-01-21T22:20:01.701Z,145.13
2018-01-21T22:22:29.611Z,131.00
2018-01-21T22:24:57.682Z,121.27
2018-01-21T22:27:25.609Z,167.37
2018-01-21T22:29:54.460Z,142.70
2018-01-21T22:32:22.503Z,147.47
2018-01-21T22:34:51.167Z,126.37
2018-01-21T22:37:19.212Z,126.10
2018-01-21T22:39:47.281Z,136.83
2018-01-21T22:42:15.214Z,127.67
2018-01-21T22:44:43.127Z,115.40
2018-01-21T22:47:11.237Z,134.77
2018-01-21T22:49:40.045Z,135.20
2018-01-21T22:52:07.988Z,140.33
2018-01-21T22:54:36.789Z,118.40
2018-01-21T22:57:06.806Z,135.60
2018-01-21T22:59:34.828Z,107.43
2018-01-21T23:02:02.976Z,155.20
2018-01-21T23:04:30.987Z,135.30
2018-01-21T23:06:59.048Z,155.80
2018-01-21T23:09:27.188Z,145.27
2018-01-21T23:11:55.825Z,137.30
2018-01-21T23:14:23.793Z,158.00
2018-01-21T23:16:51.909Z,149.70
2018-01-21T23:19:20.581Z,156.10
2018-01-21T23:21:49.230Z,162.47
2018-01-21T23:24:17.275Z,128.63
2018-01-21T23:26:45.281Z,162.33
2018-01-21T23:29:13.243Z,164.37
2018-01-21T23:31:41.305Z,156.20
2018-01-21T23:34:09.253Z,143.47
2018-01-21T23:36:37.393Z,126.77
2018-01-21T23:39:05.577Z,144.77
2018-01-21T23:41:34.235Z,173.73
2018-01-21T23:44:02.139Z,169.47
2018-01-21T23:46:30.994Z,138.73
2018-01-21T23:48:59.081Z,167.60
2018-01-21T23:51:27.131Z,187.97
2018-01-21T23:53:55.183Z,147.00
2018-01-21T23:56:23.165Z,159.10
2018-01-21T23:58:51.073Z,153.60
